createdAt,value
2018-12-21T00:00:47.071Z,96501.58
2018-12-21T00:02:28.857Z,96495.56
2018-12-21T00:04:04.460Z,96500.39
2018-12-21T00:05:41.194Z,96489.02
2018-12-21T00:07:16.768Z,96494.45
2018-12-21T00:08:57.787Z,96504.88
2018-12-21T00:10:36.523Z,96501.90
2018-12-21T00:12:21.571Z,96500.05
2018-12-21T00:14:00.283Z,96496.21
2018-12-21T00:15:38.609Z,96491.14
2018-12-21T00:17:17.172Z,96493.50
2018-12-21T00:18:53.363Z,96502.34
2018-12-21T00:20:28.223Z,96498.92
2018-12-21T00:22:03.785Z,96506.05
2018-12-21T00:23:40.366Z,96498.09
2018-12-21T00:25:15.892Z,96492.33
2018-12-21T00:26:51.170Z,96492.77
2018-12-21T00:28:26.253Z,96489.61
2018-12-21T00:30:03.624Z,96495.21
2018-12-21T00:31:43.525Z,96488.84
2018-12-21T00:33:24.452Z,96480.13
2018-12-21T00:35:06.582Z,96485.48
2018-12-21T00:36:46.978Z,96481.36
2018-12-21T00:38:29.204Z,96475.17
2018-12-21T00:40:10.004Z,96473.23
2018-12-21T00:41:46.141Z,96466.04
2018-12-21T00:43:28.919Z,96465.27
2018-12-21T00:45:12.386Z,96472.87
2018-12-21T00:46:51.166Z,96468.34
2018-12-21T00:48:26.839Z,96469.16
2018-12-21T00:50:04.572Z,96467.28
2018-12-21T00:51:40.480Z,96456.27
2018-12-21T00:53:16.364Z,96455.33
2018-12-21T00:54:53.041Z,96454.73
2018-12-21T00:56:29.479Z,96447.44
2018-12-21T00:58:07.261Z,96459.22
2018-12-21T00:59:43.727Z,96442.95
2018-12-21T01:01:19.662Z,96448.31
2018-12-21T01:02:55.401Z,96442.36
2018-12-21T01:04:35.867Z,96435.59
2018-12-21T01:06:11.214Z,96435.41
2018-12-21T01:07:46.256Z,96430.17
2018-12-21T01:09:24.259Z,96440.66
2018-12-21T01:10:59.896Z,96440.34
2018-12-21T01:12:35.466Z,96438.30
2018-12-21T01:14:11.198Z,96439.06
2018-12-21T01:15:46.478Z,96426.63
2018-12-21T01:17:22.121Z,96431.57
2018-12-21T01:18:57.848Z,96431.81
2018-12-21T01:20:33.383Z,96432.40
2018-12-21T01:22:09.062Z,96438.83
2018-12-21T01:23:44.579Z,96430.87
2018-12-21T01:25:19.615Z,96440.70
2018-12-21T01:26:54.634Z,96445.02
2018-12-21T01:28:32.468Z,96432.16
2018-12-21T01:30:09.755Z,96439.00
2018-12-21T01:31:46.111Z,96440.59
2018-12-21T01:33:22.368Z,96433.99
2018-12-21T01:34:58.247Z,96435.11
2018-12-21T01:36:37.609Z,96434.69
2018-12-21T01:38:13.144Z,96439.00
2018-12-21T01:39:48.769Z,96433.16
2018-12-21T01:41:26.564Z,96436.64
2018-12-21T01:43:02.054Z,96431.63
2018-12-21T01:44:38.834Z,96438.41
2018-12-21T01:46:15.884Z,96435.52
2018-12-21T01:47:52.854Z,96438.41
2018-12-21T01:49:28.878Z,96425.03
2018-12-21T01:51:05.575Z,96426.98
2018-12-21T01:52:41.255Z,96420.62
2018-12-21T01:54:16.379Z,96420.97
2018-12-21T01:55:52.563Z,96425.63
2018-12-21T01:57:29.737Z,96413.42
2018-12-21T01:59:06.191Z,96414.61
2018-12-21T02:00:42.354Z,96414.61
2018-12-21T02:02:18.513Z,96413.49
2018-12-21T02:03:53.687Z,96406.65
2018-12-21T02:05:32.565Z,96405.41
2018-12-21T02:07:07.559Z,96408.53
2018-12-21T02:08:44.993Z,96402.94
2018-12-21T02:10:21.732Z,96394.21
2018-12-21T02:11:59.360Z,96393.69
2018-12-21T02:13:36.317Z,96395.56
2018-12-21T02:15:14.754Z,96393.80
2018-12-21T02:16:50.826Z,96388.37
2018-12-21T02:18:27.652Z,96377.27
2018-12-21T02:20:03.935Z,96381.77
2018-12-21T02:21:40.976Z,96372.61
2018-12-21T02:23:19.228Z,96370.48
2018-12-21T02:24:55.227Z,96367.19
2018-12-21T02:26:31.000Z,96366.77
2018-12-21T02:28:08.826Z,96366.77
2018-12-21T02:29:45.150Z,96357.70
2018-12-21T02:31:21.463Z,96362.18
2018-12-21T02:32:57.251Z,96357.52
2018-12-21T02:34:32.443Z,96348.80
2018-12-21T02:36:07.517Z,96355.33
2018-12-21T02:37:43.884Z,96351.61
2018-12-21T02:39:20.190Z,96354.39
2018-12-21T02:40:57.411Z,96343.73
2018-12-21T02:42:33.274Z,96336.19
2018-12-21T02:44:08.527Z,96339.83
2018-12-21T02:45:43.476Z,96330.10
2018-12-21T02:47:20.301Z,96331.36
2018-12-21T02:48:56.684Z,96330.34
2018-12-21T02:50:32.057Z,96331.28
2018-12-21T02:52:08.142Z,96320.61
2018-12-21T02:53:44.583Z,96326.87
2018-12-21T02:55:20.214Z,96326.87
2018-12-21T02:56:58.965Z,96324.50
2018-12-21T02:58:36.245Z,96320.86
2018-12-21T03:00:13.545Z,96328.16
2018-12-21T03:01:49.827Z,96314.01
2018-12-21T03:03:30.794Z,96314.35
2018-12-21T03:05:06.057Z,96299.52
2018-12-21T03:06:41.026Z,96310.95
2018-12-21T03:08:16.457Z,96306.64
2018-12-21T03:09:52.917Z,96309.94
2018-12-21T03:11:28.465Z,96307.23
2018-12-21T03:13:03.753Z,96300.80
2018-12-21T03:14:40.203Z,96296.55
2018-12-21T03:16:15.687Z,96289.26
2018-12-21T03:17:51.448Z,96295.03
2018-12-21T03:19:29.282Z,96289.95
2018-12-21T03:21:04.358Z,96284.36
2018-12-21T03:22:39.513Z,96279.53
2018-12-21T03:24:15.675Z,96267.84
2018-12-21T03:25:54.419Z,96276.89
2018-12-21T03:27:29.413Z,96271.05
2018-12-21T03:29:05.444Z,96260.72
2018-12-21T03:30:40.897Z,96258.95
2018-12-21T03:32:16.084Z,96257.31
2018-12-21T03:33:53.958Z,96256.73
2018-12-21T03:35:29.156Z,96257.48
2018-12-21T03:37:04.318Z,96254.12
2018-12-21T03:38:39.446Z,96257.59
2018-12-21T03:40:14.753Z,96258.19
2018-12-21T03:41:49.527Z,96257.59
2018-12-21T03:43:24.687Z,96256.55
2018-12-21T03:44:59.475Z,96247.75
2018-12-21T03:46:34.290Z,96245.98
2018-12-21T03:48:09.126Z,96243.77
2018-12-21T03:49:43.955Z,96246.47
2018-12-21T03:52:52.067Z,96241.72
2018-12-21T03:54:27.363Z,96237.25
2018-12-21T03:56:02.250Z,96243.17
2018-12-21T03:57:37.190Z,96235.37
2018-12-21T03:59:12.368Z,96230.13
2018-12-21T04:00:47.472Z,96228.61
2018-12-21T04:02:23.084Z,96215.55
2018-12-21T04:04:00.138Z,96219.13
2018-12-21T04:05:35.435Z,96219.53
2018-12-21T04:07:11.067Z,96210.75
2018-12-21T04:08:46.606Z,96209.62
2018-12-21T04:10:21.991Z,96205.50
2018-12-21T04:11:56.887Z,96198.78
2018-12-21T04:13:31.868Z,96207.27
2018-12-21T04:15:08.990Z,96198.63
2018-12-21T04:16:44.233Z,96190.25
2018-12-21T04:18:19.792Z,96180.05
2018-12-21T04:19:54.771Z,96186.33
2018-12-21T04:21:29.867Z,96179.89
2018-12-21T04:23:05.021Z,96170.99
2018-12-21T04:24:40.246Z,96163.88
2018-12-21T04:26:15.443Z,96160.66
2018-12-21T04:27:51.275Z,96161.33
2018-12-21T04:29:27.671Z,96156.76
2018-12-21T04:31:04.598Z,96151.16
2018-12-21T04:32:40.446Z,96151.84
2018-12-21T04:34:17.381Z,96144.73
2018-12-21T04:35:53.682Z,96143.03
2018-12-21T04:37:29.220Z,96135.66
2018-12-21T04:39:05.185Z,96123.55
2018-12-21T04:40:40.236Z,96118.46
2018-12-21T04:42:15.307Z,96116.77
2018-12-21T04:43:50.464Z,96111.14
2018-12-21T04:45:25.774Z,96111.81
2018-12-21T04:47:00.860Z,96106.65
2018-12-21T04:48:36.297Z,96101.73
2018-12-21T04:50:11.511Z,96099.61
2018-12-21T04:51:46.320Z,96092.41
2018-12-21T04:53:21.116Z,96081.56
2018-12-21T04:54:55.864Z,96082.99
2018-12-21T04:56:30.963Z,96073.00
2018-12-21T04:58:05.950Z,96073.16
2018-12-21T04:59:40.752Z,96066.31
2018-12-21T05:01:15.479Z,96067.83
2018-12-21T05:02:50.245Z,96056.81
2018-12-21T05:04:41.679Z,96070.45
2018-12-21T05:06:16.432Z,96070.78
2018-12-21T05:07:51.174Z,96061.13
2018-12-21T05:09:25.928Z,96056.64
2018-12-21T05:11:00.954Z,96060.84
2018-12-21T05:12:42.319Z,96051.05
2018-12-21T05:14:17.056Z,96054.06
2018-12-21T05:15:52.047Z,96068.08
2018-12-21T05:17:26.816Z,96060.84
2018-12-21T05:19:01.576Z,96051.05
2018-12-21T05:20:36.417Z,96047.09
2018-12-21T05:22:11.259Z,96041.77
2018-12-21T05:23:46.431Z,96046.09
2018-12-21T05:25:21.494Z,96036.72
2018-12-21T05:27:07.290Z,96035.84
2018-12-21T05:28:43.740Z,96038.13
2018-12-21T05:30:19.241Z,96036.41
2018-12-21T05:31:54.278Z,96039.22
2018-12-21T05:33:29.291Z,96039.88
2018-12-21T05:35:05.716Z,96042.86
2018-12-21T05:36:40.691Z,96036.74
2018-12-21T05:38:16.149Z,96036.84
2018-12-21T05:39:52.223Z,96035.81
2018-12-21T05:41:27.811Z,96042.43
2018-12-21T05:43:02.764Z,96028.48
2018-12-21T05:44:38.051Z,96020.14
2018-12-21T05:46:13.031Z,96022.30
2018-12-21T05:47:48.544Z,96009.78
2018-12-21T05:49:23.586Z,96005.92
2018-12-21T05:50:58.895Z,95993.98
2018-12-21T05:52:34.831Z,95994.73
2018-12-21T05:54:10.247Z,95989.44
2018-12-21T05:55:45.309Z,95978.00
2018-12-21T05:57:20.585Z,95979.22
2018-12-21T05:58:55.767Z,95983.56
2018-12-21T06:00:30.906Z,95970.49
2018-12-21T06:02:06.476Z,95974.23
2018-12-21T06:03:41.655Z,95966.75
2018-12-21T06:05:16.459Z,95959.73
2018-12-21T06:06:51.303Z,95950.24
2018-12-21T06:08:26.214Z,95944.02
2018-12-21T06:10:02.532Z,95944.68
2018-12-21T06:11:38.242Z,95937.90
2018-12-21T06:13:15.083Z,95929.47
2018-12-21T06:14:49.927Z,95928.44
2018-12-21T06:16:25.257Z,95914.70
2018-12-21T06:18:01.645Z,95906.56
2018-12-21T06:19:38.332Z,95897.47
2018-12-21T06:21:13.296Z,95887.84
2018-12-21T06:22:50.339Z,95891.31
2018-12-21T06:24:30.616Z,95883.34
2018-12-21T06:26:05.753Z,95886.70
2018-12-21T06:27:44.016Z,95877.31
2018-12-21T06:29:19.005Z,95879.77
2018-12-21T06:30:55.090Z,95879.16
2018-12-21T06:32:29.983Z,95867.88
2018-12-21T06:34:06.461Z,95861.15
2018-12-21T06:35:43.059Z,95854.82
2018-12-21T06:37:18.523Z,95849.64
2018-12-21T06:38:58.513Z,95836.73
2018-12-21T06:40:34.436Z,95842.61
2018-12-21T06:42:09.276Z,95837.62
2018-12-21T06:43:44.539Z,95838.27
2018-12-21T06:45:20.155Z,95838.52
2018-12-21T06:46:55.755Z,95845.58
2018-12-21T06:48:30.603Z,95826.58
2018-12-21T06:50:05.923Z,95825.73
2018-12-21T06:51:40.963Z,95824.95
2018-12-21T06:53:18.341Z,95807.31
2018-12-21T06:54:53.380Z,95812.14
2018-12-21T06:56:30.470Z,95798.32
2018-12-21T06:58:05.648Z,95805.66
2018-12-21T06:59:41.655Z,95810.21
2018-12-21T07:01:21.654Z,95800.09
2018-12-21T07:02:56.387Z,95792.66
2018-12-21T07:04:31.438Z,95800.53
2018-12-21T07:06:07.771Z,95800.09
2018-12-21T07:07:43.803Z,95795.27
2018-12-21T07:09:19.368Z,95792.57
2018-12-21T07:10:55.133Z,95798.14
2018-12-21T07:12:34.562Z,95779.44
2018-12-21T07:14:09.450Z,95773.30
2018-12-21T07:15:44.490Z,95748.00
2018-12-21T07:17:19.840Z,95769.83
2018-12-21T07:18:56.208Z,95779.05
2018-12-21T07:20:32.631Z,95780.09
2018-12-21T07:22:07.466Z,95744.69
2018-12-21T07:23:42.363Z,95764.28
2018-12-21T07:25:17.257Z,95768.95
2018-12-21T07:26:52.120Z,95770.47
2018-12-21T07:28:28.912Z,95779.48
2018-12-21T07:30:05.285Z,95793.81
2018-12-21T07:31:42.412Z,95777.85
2018-12-21T07:33:18.503Z,95771.94
2018-12-21T07:34:54.666Z,95751.03
2018-12-21T07:36:30.730Z,95753.00
2018-12-21T07:38:05.752Z,95710.98
2018-12-21T07:39:40.879Z,95710.53
2018-12-21T07:41:16.325Z,95731.77
2018-12-21T07:42:51.659Z,95738.08
2018-12-21T07:44:31.573Z,95738.23
2018-12-21T07:46:06.736Z,95733.45
2018-12-21T07:47:42.289Z,95734.48
2018-12-21T07:49:18.747Z,95736.92
2018-12-21T07:50:55.296Z,95723.95
2018-12-21T07:52:30.377Z,95719.88
2018-12-21T07:54:05.740Z,95716.45
2018-12-21T07:55:41.105Z,95710.41
2018-12-21T07:57:16.266Z,95707.55
2018-12-21T07:58:57.166Z,95709.19
2018-12-21T08:00:30.458Z,95701.52
2018-12-21T08:02:06.949Z,95702.76
2018-12-21T08:03:42.776Z,95700.33
2018-12-21T08:05:18.681Z,95697.17
2018-12-21T08:06:53.733Z,95688.42
2018-12-21T08:08:32.666Z,95677.88
2018-12-21T08:10:13.313Z,95684.07
2018-12-21T08:11:49.307Z,95679.36
2018-12-21T08:13:28.708Z,95673.81
2018-12-21T08:15:09.406Z,95683.00
2018-12-21T08:16:48.025Z,95675.45
2018-12-21T08:18:27.062Z,95673.97
2018-12-21T08:20:02.729Z,95670.22
2018-12-21T08:21:41.028Z,95660.55
2018-12-21T08:23:17.302Z,95652.25
2018-12-21T08:24:52.874Z,95658.44
2018-12-21T08:26:30.866Z,95653.77
2018-12-21T08:28:06.157Z,95651.20
2018-12-21T08:29:41.702Z,95651.05
2018-12-21T08:31:17.032Z,95638.27
2018-12-21T08:32:52.448Z,95640.66
2018-12-21T08:34:29.311Z,95637.50
2018-12-21T08:36:04.789Z,95630.09
2018-12-21T08:37:40.218Z,95615.78
2018-12-21T08:39:15.388Z,95605.39
2018-12-21T08:40:50.392Z,95613.70
2018-12-21T08:42:26.867Z,95611.27
2018-12-21T08:44:02.996Z,95591.22
2018-12-21T08:45:38.374Z,95595.29
2018-12-21T08:47:14.658Z,95588.34
2018-12-21T08:48:50.572Z,95578.83
2018-12-21T08:50:25.630Z,95577.48
2018-12-21T08:52:01.035Z,95577.19
2018-12-21T08:53:36.164Z,95574.47
2018-12-21T08:55:19.112Z,95563.77
2018-12-21T08:56:54.370Z,95555.20
2018-12-21T08:58:29.995Z,95546.00
2018-12-21T09:00:08.068Z,95536.81
2018-12-21T09:01:44.424Z,95543.45
2018-12-21T09:03:20.540Z,95535.61
2018-12-21T09:04:56.701Z,95518.09
2018-12-21T09:06:32.615Z,95513.88
2018-12-21T09:08:09.506Z,95526.69
2018-12-21T09:09:45.585Z,95540.42
2018-12-21T09:11:21.262Z,95547.97
2018-12-21T09:12:56.960Z,95516.91
2018-12-21T09:14:32.397Z,95510.88
2018-12-21T09:16:08.332Z,95513.58
2018-12-21T09:17:49.112Z,95504.06
2018-12-21T09:19:33.082Z,95502.42
2018-12-21T09:21:33.217Z,95505.59
2018-12-21T09:23:13.814Z,95497.59
2018-12-21T09:24:49.475Z,95495.33
2018-12-21T09:26:26.095Z,95497.59
2018-12-21T09:28:03.622Z,95499.11
2018-12-21T09:29:39.127Z,95496.22
2018-12-21T09:31:15.830Z,95498.81
2018-12-21T09:32:52.053Z,95490.19
2018-12-21T09:34:29.917Z,95486.87
2018-12-21T09:36:05.821Z,95483.09
2018-12-21T09:37:41.648Z,95485.66
2018-12-21T09:39:18.304Z,95475.38
2018-12-21T09:40:54.173Z,95476.44
2018-12-21T09:42:30.022Z,95474.17
2018-12-21T09:44:08.345Z,95480.97
2018-12-21T09:45:43.984Z,95485.66
2018-12-21T09:47:22.113Z,95481.88
2018-12-21T09:48:58.341Z,95488.37
2018-12-21T09:50:39.489Z,95480.67
2018-12-21T09:52:15.971Z,95477.36
2018-12-21T09:53:51.752Z,95469.96
2018-12-21T09:55:28.466Z,95456.67
2018-12-21T09:57:08.888Z,95456.34
2018-12-21T09:58:49.382Z,95451.52
2018-12-21T10:00:33.998Z,95443.96
2018-12-21T10:02:11.211Z,95449.85
2018-12-21T10:03:47.777Z,95444.11
2018-12-21T10:05:27.714Z,95449.70
2018-12-21T10:07:04.268Z,95448.77
2018-12-21T10:08:39.835Z,95441.82
2018-12-21T10:10:20.217Z,95443.93
2018-12-21T10:11:55.585Z,95435.02
2018-12-21T10:13:32.904Z,95436.23
2018-12-21T10:15:10.330Z,95428.98
2018-12-21T10:16:46.474Z,95418.67
2018-12-21T10:18:23.298Z,95420.22
2018-12-21T10:20:03.825Z,95428.37
2018-12-21T10:21:41.517Z,95430.75
2018-12-21T10:23:22.071Z,95428.48
2018-12-21T10:24:57.536Z,95413.83
2018-12-21T10:26:34.432Z,95410.32
2018-12-21T10:28:10.877Z,95407.48
2018-12-21T10:29:46.004Z,95405.22
2018-12-21T10:31:25.280Z,95405.52
2018-12-21T10:33:02.532Z,95405.97
2018-12-21T10:34:38.840Z,95401.70
2018-12-21T10:36:16.425Z,95398.21
2018-12-21T10:37:55.248Z,95401.08
2018-12-21T10:39:32.487Z,95397.56
2018-12-21T10:41:10.006Z,95397.87
2018-12-21T10:42:46.634Z,95382.15
2018-12-21T10:44:21.968Z,95384.40
2018-12-21T10:45:57.992Z,95383.20
2018-12-21T10:47:34.551Z,95382.74
2018-12-21T10:49:09.897Z,95393.58
2018-12-21T10:50:47.105Z,95381.68
2018-12-21T10:52:23.051Z,95383.80
2018-12-21T10:54:11.644Z,95381.48
2018-12-21T10:55:48.685Z,95379.06
2018-12-21T10:57:25.759Z,95372.08
2018-12-21T10:59:00.955Z,95368.63
2018-12-21T11:00:40.169Z,95372.23
2018-12-21T11:02:15.560Z,95365.89
2018-12-21T11:03:51.120Z,95363.78
2018-12-21T11:05:27.228Z,95363.48
2018-12-21T11:07:03.050Z,95362.22
2018-12-21T11:08:40.455Z,95364.77
2018-12-21T11:10:16.406Z,95356.45
2018-12-21T11:11:54.253Z,95354.11
2018-12-21T11:13:31.717Z,95350.64
2018-12-21T11:15:08.929Z,95358.05
2018-12-21T11:16:46.017Z,95357.13
2018-12-21T11:18:21.182Z,95362.27
2018-12-21T11:20:02.230Z,95358.77
2018-12-21T11:21:38.431Z,95348.14
2018-12-21T11:23:16.189Z,95356.89
2018-12-21T11:24:52.164Z,95351.59
2018-12-21T11:26:29.342Z,95347.51
2018-12-21T11:28:05.432Z,95359.13
2018-12-21T11:29:41.884Z,95353.83
2018-12-21T11:31:19.213Z,95343.66
2018-12-21T11:32:54.309Z,95351.52
2018-12-21T11:34:30.438Z,95357.58
2018-12-21T11:36:07.357Z,95353.63
2018-12-21T11:37:44.479Z,95355.43
2018-12-21T11:39:21.725Z,95345.12
2018-12-21T11:40:57.730Z,95344.36
2018-12-21T11:42:33.267Z,95349.73
2018-12-21T11:44:16.710Z,95351.70
2018-12-21T11:45:59.180Z,95355.78
2018-12-21T11:47:36.846Z,95342.55
2018-12-21T11:49:15.146Z,95345.01
2018-12-21T11:50:50.846Z,95340.43
2018-12-21T11:52:30.104Z,95346.60
2018-12-21T11:54:05.550Z,95350.52
2018-12-21T11:55:41.406Z,95348.83
2018-12-21T11:57:17.839Z,95358.77
2018-12-21T11:58:54.984Z,95361.47
2018-12-21T12:00:30.980Z,95363.73
2018-12-21T12:02:19.320Z,95384.92
2018-12-21T12:04:05.388Z,95607.16
2018-12-21T12:05:43.811Z,95965.02
2018-12-21T12:07:19.227Z,96001.68
2018-12-21T12:09:06.145Z,96038.03
2018-12-21T12:10:39.979Z,96095.12
2018-12-21T12:12:15.967Z,96135.63
2018-12-21T12:13:52.097Z,96172.61
2018-12-21T12:15:29.306Z,96240.34
2018-12-21T12:17:08.448Z,96283.53
2018-12-21T12:18:43.567Z,96437.23
2018-12-21T12:20:20.945Z,96482.27
2018-12-21T12:21:56.327Z,96517.34
2018-12-21T12:23:31.433Z,96551.44
2018-12-21T12:25:07.244Z,96577.38
2018-12-21T12:26:44.486Z,96621.58
2018-12-21T12:28:19.887Z,96770.15
2018-12-21T12:29:57.034Z,96866.93
2018-12-21T12:31:33.985Z,96944.06
2018-12-21T12:33:10.702Z,97049.50
2018-12-21T12:34:48.380Z,97135.84
2018-12-21T12:36:26.195Z,97234.52
2018-12-21T12:38:03.098Z,97339.75
2018-12-21T12:39:39.209Z,97434.55
2018-12-21T12:41:15.434Z,97511.14
2018-12-21T12:42:54.793Z,97680.75
2018-12-21T12:44:31.800Z,97744.48
2018-12-21T12:46:08.293Z,97791.64
2018-12-21T12:47:51.518Z,97827.08
2018-12-21T12:49:27.972Z,97910.60
2018-12-21T12:51:08.559Z,97952.55
2018-12-21T12:52:51.680Z,97988.25
2018-12-21T12:54:27.559Z,98014.95
2018-12-21T12:56:05.375Z,98049.88
2018-12-21T12:57:45.126Z,98097.70
2018-12-21T12:59:22.489Z,98126.18
2018-12-21T13:00:58.033Z,98170.63
2018-12-21T13:02:34.568Z,98190.12
2018-12-21T13:04:11.344Z,98216.87
2018-12-21T13:05:47.206Z,98218.80
2018-12-21T13:07:27.211Z,98262.66
2018-12-21T13:09:10.696Z,98292.73
2018-12-21T13:10:45.888Z,98318.67
2018-12-21T13:12:23.300Z,98353.81
2018-12-21T13:14:01.345Z,98362.98
2018-12-21T13:15:38.474Z,98386.02
2018-12-21T13:17:24.185Z,98425.02
2018-12-21T13:19:01.209Z,98442.59
2018-12-21T13:20:38.562Z,98455.67
2018-12-21T13:22:16.764Z,98494.91
2018-12-21T13:23:52.494Z,98510.52
2018-12-21T13:25:28.387Z,98525.56
2018-12-21T13:27:05.883Z,98570.45
2018-12-21T13:28:42.372Z,98570.83
2018-12-21T13:30:20.296Z,98607.95
2018-12-21T13:31:55.359Z,98637.05
2018-12-21T13:33:33.491Z,98659.66
2018-12-21T13:35:19.671Z,98671.38
2018-12-21T13:37:05.565Z,98696.20
2018-12-21T13:38:43.685Z,98714.17
2018-12-21T13:40:19.228Z,98730.20
2018-12-21T13:41:55.257Z,98756.15
2018-12-21T13:43:32.120Z,98786.43
2018-12-21T13:45:13.314Z,98787.41
2018-12-21T13:46:50.611Z,98796.41
2018-12-21T13:48:27.181Z,98821.42
2018-12-21T13:50:06.415Z,98819.28
2018-12-21T13:51:45.618Z,98819.86
2018-12-21T13:53:22.705Z,98824.55
2018-12-21T13:54:58.416Z,98857.20
2018-12-21T13:56:37.127Z,98872.24
2018-12-21T13:58:14.258Z,98880.84
2018-12-21T13:59:50.888Z,98879.84
2018-12-21T14:01:27.798Z,98875.53
2018-12-21T14:03:09.849Z,98878.50
2018-12-21T14:04:45.110Z,98880.23
2018-12-21T14:06:20.674Z,98879.64
2018-12-21T14:07:56.949Z,98860.09
2018-12-21T14:09:33.019Z,98859.89
2018-12-21T14:11:10.266Z,98807.53
2018-12-21T14:12:47.322Z,98779.78
2018-12-21T14:14:22.421Z,98757.11
2018-12-21T14:15:57.464Z,98751.05
2018-12-21T14:17:32.797Z,98717.42
2018-12-21T14:19:09.414Z,98716.85
2018-12-21T14:20:48.868Z,98678.54
2018-12-21T14:22:38.323Z,98683.23
2018-12-21T14:24:21.194Z,98661.33
2018-12-21T14:26:05.620Z,98648.22
2018-12-21T14:27:43.744Z,98629.06
2018-12-21T14:29:27.704Z,98612.26
2018-12-21T14:31:22.424Z,98570.64
2018-12-21T14:32:59.249Z,98531.55
2018-12-21T14:34:41.321Z,98498.91
2018-12-21T14:36:20.842Z,98481.89
2018-12-21T14:38:00.726Z,98442.43
2018-12-21T14:39:36.600Z,98406.08
2018-12-21T14:41:13.935Z,98362.73
2018-12-21T14:42:56.019Z,98327.41
2018-12-21T14:44:32.553Z,98312.55
2018-12-21T14:46:11.473Z,98283.36
2018-12-21T14:47:51.327Z,98238.02
2018-12-21T14:49:33.012Z,98201.50
2018-12-21T14:51:08.377Z,98165.52
2018-12-21T14:52:45.223Z,98121.75
2018-12-21T14:54:20.667Z,98095.65
2018-12-21T14:55:57.173Z,98052.52
2018-12-21T14:57:38.011Z,98009.57
2018-12-21T14:59:15.449Z,97966.03
2018-12-21T15:01:03.790Z,97927.41
2018-12-21T15:02:50.404Z,97892.27
2018-12-21T15:04:36.837Z,97844.05
2018-12-21T15:06:17.686Z,97810.41
2018-12-21T15:07:56.301Z,97770.06
2018-12-21T15:09:47.094Z,97722.44
2018-12-21T15:11:26.237Z,97678.95
2018-12-21T15:13:13.973Z,97642.97
2018-12-21T15:14:53.913Z,97592.20
2018-12-21T15:16:31.588Z,97564.93
2018-12-21T15:18:10.045Z,97531.69
2018-12-21T15:19:50.266Z,97499.13
2018-12-21T15:21:27.672Z,97468.80
2018-12-21T15:23:06.491Z,97427.77
2018-12-21T15:24:44.527Z,97391.88
2018-12-21T15:26:29.857Z,97353.59
2018-12-21T15:28:09.734Z,97316.85
2018-12-21T15:29:48.993Z,97293.87
2018-12-21T15:31:29.119Z,97264.89
2018-12-21T15:33:09.973Z,97222.94
2018-12-21T15:34:46.947Z,97195.94
2018-12-21T15:36:27.076Z,97155.69
2018-12-21T15:38:07.016Z,97139.11
2018-12-21T15:39:49.227Z,97105.37
2018-12-21T15:41:26.447Z,97078.02
2018-12-21T15:43:01.578Z,97027.38
2018-12-21T15:44:37.241Z,96990.30
2018-12-21T15:46:22.046Z,96950.20
2018-12-21T15:47:58.854Z,96909.62
2018-12-21T15:49:34.025Z,96853.81
2018-12-21T15:51:11.400Z,96807.92
2018-12-21T15:55:19.084Z,96678.79
2018-12-21T15:56:58.725Z,96612.75
2018-12-21T16:00:16.702Z,96494.95
2018-12-21T16:01:52.993Z,96443.92
2018-12-21T16:03:30.280Z,96391.88
2018-12-21T16:05:10.626Z,96354.55
2018-12-21T16:06:49.487Z,96299.88
2018-12-21T16:08:39.468Z,96259.36
2018-12-21T16:10:29.099Z,96215.05
2018-12-21T16:12:08.585Z,96158.77
2018-12-21T16:13:45.622Z,96125.39
2018-12-21T16:15:28.471Z,96115.67
2018-12-21T16:17:07.201Z,96080.47
2018-12-21T16:18:48.950Z,96056.66
2018-12-21T16:20:27.276Z,96004.44
2018-12-21T16:22:03.262Z,95980.04
2018-12-21T16:23:42.136Z,95950.16
2018-12-21T16:25:19.668Z,95939.98
2018-12-21T16:26:56.137Z,95916.78
2018-12-21T16:28:34.444Z,95912.03
2018-12-21T16:30:16.512Z,95897.81
2018-12-21T16:31:53.337Z,95878.23
2018-12-21T16:33:31.235Z,95867.03
2018-12-21T16:35:09.554Z,95874.61
2018-12-21T16:36:52.612Z,95861.11
2018-12-21T16:38:35.750Z,95863.44
2018-12-21T16:40:23.637Z,95874.02
2018-12-21T16:42:04.553Z,95872.99
2018-12-21T16:43:56.336Z,95838.67
2018-12-21T16:45:45.329Z,95858.88
2018-12-21T16:47:24.593Z,95871.48
2018-12-21T16:49:04.064Z,95872.09
2018-12-21T16:50:43.225Z,95856.47
2018-12-21T16:52:21.944Z,95863.19
2018-12-21T16:54:00.338Z,95845.30
2018-12-21T16:57:45.237Z,95854.84
2018-12-21T16:59:24.666Z,95836.66
2018-12-21T17:01:05.004Z,95853.05
2018-12-21T17:02:42.051Z,95840.31
2018-12-21T17:04:23.167Z,95860.52
2018-12-21T17:05:59.593Z,95847.78
2018-12-21T17:07:40.820Z,95855.63
2018-12-21T17:09:20.220Z,95853.05
2018-12-21T17:10:58.816Z,95863.06
2018-12-21T17:12:37.636Z,95878.67
2018-12-21T17:14:13.366Z,95872.50
2018-12-21T17:15:57.575Z,95894.64
2018-12-21T17:17:39.997Z,95868.37
2018-12-21T17:19:42.448Z,95881.89
2018-12-21T17:21:40.186Z,95882.50
2018-12-21T17:23:36.590Z,95892.78
2018-12-21T17:25:26.787Z,95915.06
2018-12-21T17:27:12.596Z,95884.73
2018-12-21T17:32:31.852Z,95914.20
2018-12-21T17:36:13.355Z,95906.65
2018-12-21T17:38:05.502Z,95924.56
2018-12-21T17:39:54.019Z,95913.34
2018-12-21T17:41:47.275Z,95915.77
2018-12-21T17:43:35.251Z,95916.23
2018-12-21T17:47:41.975Z,95913.66
2018-12-21T17:49:31.352Z,95902.59
2018-12-21T17:51:23.183Z,95922.59
2018-12-21T17:55:05.030Z,95929.72
2018-12-21T17:56:54.587Z,95890.28
2018-12-21T17:58:43.068Z,95940.91
2018-12-21T18:00:37.517Z,95933.78
2018-12-21T18:02:20.367Z,95950.73
2018-12-21T18:04:12.378Z,95951.52
2018-12-21T18:06:07.411Z,95964.09
2018-12-21T18:07:49.042Z,95966.52
2018-12-21T18:09:35.435Z,95985.64
2018-12-21T18:11:24.438Z,95956.99
2018-12-21T18:13:19.069Z,95964.57
2018-12-21T18:15:08.125Z,95982.30
2018-12-21T18:16:54.767Z,95983.06
2018-12-21T18:18:41.204Z,95962.60
2018-12-21T18:20:25.248Z,95982.45
2018-12-21T18:22:15.279Z,95978.36
2018-12-21T18:23:52.187Z,95998.52
2018-12-21T18:25:38.758Z,95981.70
2018-12-21T18:27:21.289Z,96007.16
2018-12-21T18:29:04.940Z,95995.50
2018-12-21T18:30:56.065Z,96024.88
2018-12-21T18:32:45.120Z,96041.12
2018-12-21T18:34:40.749Z,96039.88
2018-12-21T18:36:18.257Z,96043.38
2018-12-21T18:38:04.028Z,96035.64
2018-12-21T18:39:48.522Z,96051.86
2018-12-21T18:41:25.937Z,96037.77
2018-12-21T18:43:10.466Z,96055.64
2018-12-21T18:44:51.242Z,96052.03
2018-12-21T18:46:45.031Z,96045.81
2018-12-21T18:48:36.940Z,96052.33
2018-12-21T18:50:24.825Z,96057.48
2018-12-21T18:52:17.406Z,96066.86
2018-12-21T18:53:59.254Z,96060.78
2018-12-21T18:55:38.819Z,96063.33
2018-12-21T18:57:24.823Z,96063.62
2018-12-21T18:59:08.959Z,96053.00
2018-12-21T19:00:52.756Z,96051.94
2018-12-21T19:02:37.073Z,96036.50
2018-12-21T19:04:20.621Z,96064.52
2018-12-21T19:06:05.567Z,96042.55
2018-12-21T19:07:45.670Z,96059.69
2018-12-21T19:09:27.050Z,96061.81
2018-12-21T19:11:08.674Z,96060.89
2018-12-21T19:12:50.952Z,96062.56
2018-12-21T19:14:35.065Z,96056.37
2018-12-21T19:16:19.865Z,96063.37
2018-12-21T19:17:56.469Z,96073.22
2018-12-21T19:19:36.627Z,96082.92
2018-12-21T19:21:19.532Z,96077.92
2018-12-21T19:23:01.648Z,96094.12
2018-12-21T19:24:43.674Z,96100.60
2018-12-21T19:26:28.553Z,96085.60
2018-12-21T19:28:23.530Z,96092.42
2018-12-21T19:30:15.975Z,96093.94
2018-12-21T19:31:58.354Z,96113.77